createdAt,value
2017-12-08T00:01:13.627Z,99587
2017-12-08T00:03:43.671Z,99591
2017-12-08T00:06:13.555Z,99595
2017-12-08T00:08:42.737Z,99594
2017-12-08T00:11:11.870Z,99591
2017-12-08T00:13:40.967Z,99583
2017-12-08T00:16:10.842Z,99583
2017-12-08T00:18:40.055Z,99583
2017-12-08T00:21:09.132Z,99579
2017-12-08T00:23:38.233Z,99586
2017-12-08T00:26:08.522Z,99584
2017-12-08T00:28:37.612Z,99593
2017-12-08T00:31:06.696Z,99594
2017-12-08T00:33:36.250Z,99599
2017-12-08T00:36:06.107Z,99603
2017-12-08T00:38:36.271Z,99600
2017-12-08T00:41:05.380Z,99598
2017-12-08T00:43:34.474Z,99596
2017-12-08T00:46:04.329Z,99592
2017-12-08T00:48:33.548Z,99592
2017-12-08T00:51:02.644Z,99595
2017-12-08T00:53:32.091Z,99602
2017-12-08T00:56:01.273Z,99593
2017-12-08T00:58:30.366Z,99587
2017-12-08T01:00:59.518Z,99591
2017-12-08T01:03:28.672Z,99593
2017-12-08T01:05:58.531Z,99589
2017-12-08T01:08:27.659Z,99590
2017-12-08T01:10:57.378Z,99587
2017-12-08T01:13:26.471Z,99598
2017-12-08T01:15:55.573Z,99596
2017-12-08T01:18:24.703Z,99594
2017-12-08T01:20:53.820Z,99587
2017-12-08T01:23:22.911Z,99601
2017-12-08T01:25:52.413Z,99599
2017-12-08T01:28:21.556Z,99589
2017-12-08T01:30:50.676Z,99583
2017-12-08T01:33:19.915Z,99585
2017-12-08T01:35:49.011Z,99585
2017-12-08T01:38:18.138Z,99582
2017-12-08T01:43:51.690Z,99594
2017-12-08T01:46:20.831Z,99590
2017-12-08T01:48:50.021Z,99589
2017-12-08T01:51:19.984Z,99591
2017-12-08T01:53:49.179Z,99580
2017-12-08T01:56:18.488Z,99593
2017-12-08T01:58:47.715Z,99598
2017-12-08T02:01:16.933Z,99619
2017-12-08T02:03:46.318Z,99606
2017-12-08T02:06:15.818Z,99600
2017-12-08T02:08:45.748Z,99591
2017-12-08T02:11:15.661Z,99586
2017-12-08T02:13:45.730Z,99579
2017-12-08T02:16:14.901Z,99584
2017-12-08T02:18:44.792Z,99587
2017-12-08T02:21:14.041Z,99585
2017-12-08T02:23:43.947Z,99590
2017-12-08T02:26:13.094Z,99582
2017-12-08T02:28:42.999Z,99580
2017-12-08T02:31:12.130Z,99579
2017-12-08T02:33:42.091Z,99576
2017-12-08T02:36:12.494Z,99570
2017-12-08T02:38:42.409Z,99559
2017-12-08T02:41:11.547Z,99573
2017-12-08T02:43:40.658Z,99573
2017-12-08T02:46:09.743Z,99572
2017-12-08T02:48:39.611Z,99566
2017-12-08T02:51:08.860Z,99567
2017-12-08T02:53:37.956Z,99573
2017-12-08T02:56:07.051Z,99566
2017-12-08T02:58:36.178Z,99574
2017-12-08T03:01:05.351Z,99574
2017-12-08T03:03:34.431Z,99579
2017-12-08T03:06:04.477Z,99574
2017-12-08T03:08:33.594Z,99579
2017-12-08T03:11:02.753Z,99566
2017-12-08T03:13:31.865Z,99567
2017-12-08T03:16:00.968Z,99568
2017-12-08T03:18:30.992Z,99575
2017-12-08T03:21:00.198Z,99577
2017-12-08T03:23:29.321Z,99573
2017-12-08T03:25:59.993Z,99575
2017-12-08T03:28:29.929Z,99574
2017-12-08T03:30:59.807Z,99582
2017-12-08T03:33:28.939Z,99582
2017-12-08T03:35:58.075Z,99577
2017-12-08T03:38:27.188Z,99582
2017-12-08T03:40:56.314Z,99581
2017-12-08T03:43:25.470Z,99575
2017-12-08T03:45:54.622Z,99572
2017-12-08T03:48:23.816Z,99582
2017-12-08T03:50:53.750Z,99578
2017-12-08T03:53:22.949Z,99591
2017-12-08T03:55:52.133Z,99599
2017-12-08T03:58:22.474Z,99593
2017-12-08T04:00:52.508Z,99593
2017-12-08T04:03:22.487Z,99582
2017-12-08T04:05:52.407Z,99592
2017-12-08T04:08:21.528Z,99590
2017-12-08T04:10:50.698Z,99585
2017-12-08T04:13:21.527Z,99584
2017-12-08T04:15:50.716Z,99587
2017-12-08T04:18:19.948Z,99590
2017-12-08T04:20:49.255Z,99590
2017-12-08T04:23:18.454Z,99594
2017-12-08T04:25:47.676Z,99602
2017-12-08T04:28:17.491Z,99595
2017-12-08T04:30:46.641Z,99604
2017-12-08T04:33:16.600Z,99622
2017-12-08T04:35:46.852Z,99626
2017-12-08T04:38:16.046Z,99633
2017-12-08T04:40:45.238Z,99638
2017-12-08T04:43:15.407Z,99636
2017-12-08T04:45:44.640Z,99637
2017-12-08T04:48:14.597Z,99637
2017-12-08T04:50:44.511Z,99633
2017-12-08T04:53:13.886Z,99637
2017-12-08T04:55:43.058Z,99635
2017-12-08T04:58:13.201Z,99637
2017-12-08T05:00:42.453Z,99637
2017-12-08T05:03:11.546Z,99641
2017-12-08T05:05:41.973Z,99638
2017-12-08T05:08:11.145Z,99636
2017-12-08T05:10:40.263Z,99637
2017-12-08T05:13:11.097Z,99636
2017-12-08T05:15:40.195Z,99635
2017-12-08T05:18:09.286Z,99628
2017-12-08T05:20:38.889Z,99628
2017-12-08T05:23:07.998Z,99626
2017-12-08T05:25:37.085Z,99635
2017-12-08T05:28:06.291Z,99640
2017-12-08T05:30:37.191Z,99639
2017-12-08T05:33:06.310Z,99636
2017-12-08T05:35:36.256Z,99646
2017-12-08T05:38:05.322Z,99646
2017-12-08T05:40:34.399Z,99646
2017-12-08T05:43:03.532Z,99650
2017-12-08T05:45:32.619Z,99652
2017-12-08T05:48:01.728Z,99663
2017-12-08T05:50:30.868Z,99661
2017-12-08T05:52:59.946Z,99663
2017-12-08T05:55:29.040Z,99657
2017-12-08T05:57:59.004Z,99651
2017-12-08T06:00:28.172Z,99631
2017-12-08T06:02:58.115Z,99626
2017-12-08T06:05:27.232Z,99636
2017-12-08T06:07:56.306Z,99639
2017-12-08T06:10:25.408Z,99652
2017-12-08T06:12:54.570Z,99657
2017-12-08T06:15:23.817Z,99649
2017-12-08T06:17:52.966Z,99650
2017-12-08T06:20:22.965Z,99654
2017-12-08T06:22:52.135Z,99643
2017-12-08T06:25:21.331Z,99648
2017-12-08T06:27:50.479Z,99656
2017-12-08T06:30:20.029Z,99654
2017-12-08T06:32:49.952Z,99659
2017-12-08T06:35:19.261Z,99647
2017-12-08T06:37:49.274Z,99652
2017-12-08T06:40:18.592Z,99642
2017-12-08T06:42:48.094Z,99640
2017-12-08T06:45:17.344Z,99624
2017-12-08T06:47:47.386Z,99625
2017-12-08T06:50:16.558Z,99618
2017-12-08T06:52:45.678Z,99630
2017-12-08T06:55:14.795Z,99629
2017-12-08T06:57:45.528Z,99627
2017-12-08T07:00:14.703Z,99629
2017-12-08T07:02:43.917Z,99626
2017-12-08T07:05:13.042Z,99635
2017-12-08T07:07:42.165Z,99635
2017-12-08T07:10:11.282Z,99638
2017-12-08T07:12:40.480Z,99639
2017-12-08T07:15:09.578Z,99649
2017-12-08T07:17:38.678Z,99648
2017-12-08T07:20:09.434Z,99650
2017-12-08T07:22:38.567Z,99654
2017-12-08T07:25:07.702Z,99653
2017-12-08T07:27:38.309Z,99656
2017-12-08T07:30:07.438Z,99655
2017-12-08T07:32:36.540Z,99661
2017-12-08T07:35:05.813Z,99660
2017-12-08T07:37:34.899Z,99660
2017-12-08T07:40:04.043Z,99668
2017-12-08T07:42:33.302Z,99663
2017-12-08T07:45:03.243Z,99669
2017-12-08T07:47:33.138Z,99671
2017-12-08T07:50:02.470Z,99671
2017-12-08T07:52:32.345Z,99671
2017-12-08T07:55:01.420Z,99671
2017-12-08T07:57:31.399Z,99674
2017-12-08T08:00:00.497Z,99678
2017-12-08T08:02:29.587Z,99678
2017-12-08T08:04:59.487Z,99674
2017-12-08T08:07:29.345Z,99679
2017-12-08T08:09:58.430Z,99684
2017-12-08T08:12:27.615Z,99671
2017-12-08T08:14:57.511Z,99669
2017-12-08T08:17:26.657Z,99669
2017-12-08T08:19:56.951Z,99666
2017-12-08T08:22:26.094Z,99663
2017-12-08T08:24:55.279Z,99668
2017-12-08T08:27:24.508Z,99666
2017-12-08T08:29:53.604Z,99663
2017-12-08T08:32:22.701Z,99663
2017-12-08T08:34:51.844Z,99659
2017-12-08T08:37:21.936Z,99664
2017-12-08T08:39:51.143Z,99658
2017-12-08T08:42:21.353Z,99670
2017-12-08T08:44:50.482Z,99667
2017-12-08T08:47:19.646Z,99672
2017-12-08T08:49:48.916Z,99673
2017-12-08T08:52:18.099Z,99678
2017-12-08T08:54:47.240Z,99685
2017-12-08T08:57:16.485Z,99685
2017-12-08T08:59:46.702Z,99691
2017-12-08T09:02:16.013Z,99697
2017-12-08T09:04:47.186Z,99696
2017-12-08T09:07:16.439Z,99701
2017-12-08T09:09:45.604Z,99707
2017-12-08T09:12:14.810Z,99711
2017-12-08T09:14:44.736Z,99704
2017-12-08T09:17:14.514Z,99713
2017-12-08T09:19:43.629Z,99722
2017-12-08T09:22:12.750Z,99719
2017-12-08T09:24:42.422Z,99720
2017-12-08T09:27:12.353Z,99718
2017-12-08T09:29:43.189Z,99721
2017-12-08T09:32:12.320Z,99724
2017-12-08T09:34:41.459Z,99730
2017-12-08T09:37:10.547Z,99735
2017-12-08T09:39:39.654Z,99742
2017-12-08T09:42:09.094Z,99739
2017-12-08T09:44:38.200Z,99739
2017-12-08T09:47:07.286Z,99752
2017-12-08T09:49:36.424Z,99759
2017-12-08T09:52:05.539Z,99761
2017-12-08T09:54:34.635Z,99756
2017-12-08T09:57:03.875Z,99744
2017-12-08T09:59:33.385Z,99748
2017-12-08T10:02:02.478Z,99746
2017-12-08T10:04:31.695Z,99738
2017-12-08T10:07:00.833Z,99740
2017-12-08T10:09:29.957Z,99742
2017-12-08T10:11:59.931Z,99738
2017-12-08T10:14:29.072Z,99738
2017-12-08T10:16:58.213Z,99735
2017-12-08T10:19:28.134Z,99721
2017-12-08T10:21:58.147Z,99717
2017-12-08T10:24:28.078Z,99721
2017-12-08T10:26:57.351Z,99721
2017-12-08T10:29:26.546Z,99723
2017-12-08T10:31:55.712Z,99722
2017-12-08T10:34:25.680Z,99717
2017-12-08T10:36:54.929Z,99710
2017-12-08T10:39:24.152Z,99708
2017-12-08T10:41:53.390Z,99713
2017-12-08T10:44:24.505Z,99714
2017-12-08T10:46:53.892Z,99709
2017-12-08T10:49:24.707Z,99707
2017-12-08T10:51:53.967Z,99701
2017-12-08T10:54:23.161Z,99707
2017-12-08T10:56:53.182Z,99704
2017-12-08T10:59:22.553Z,99706
2017-12-08T11:01:51.703Z,99709
2017-12-08T11:04:21.926Z,99709
2017-12-08T11:06:52.020Z,99706
2017-12-08T11:09:21.295Z,99708
2017-12-08T11:11:52.869Z,99707
2017-12-08T11:14:22.276Z,99711
2017-12-08T11:16:51.553Z,99711
2017-12-08T11:19:21.487Z,99716
2017-12-08T11:21:51.643Z,99714
2017-12-08T11:24:20.909Z,99713
2017-12-08T11:26:50.283Z,99711
2017-12-08T11:29:19.604Z,99717
2017-12-08T11:31:48.991Z,99719
2017-12-08T11:34:18.240Z,99721
2017-12-08T11:36:47.534Z,99719
2017-12-08T11:39:16.815Z,99722
2017-12-08T11:41:48.701Z,99723
2017-12-08T11:44:17.960Z,99732
2017-12-08T11:46:47.171Z,99730
2017-12-08T11:49:17.624Z,99730
2017-12-08T11:51:46.819Z,99729
2017-12-08T11:54:15.990Z,99733
2017-12-08T11:56:46.179Z,99720
2017-12-08T11:59:15.347Z,99710
2017-12-08T12:01:44.508Z,99713
2017-12-08T12:04:13.986Z,99711
2017-12-08T12:06:43.100Z,99709
2017-12-08T12:09:12.187Z,99710
2017-12-08T12:11:42.881Z,99700
2017-12-08T12:14:12.006Z,99698
2017-12-08T12:16:41.119Z,99703
2017-12-08T12:19:10.311Z,99707
2017-12-08T12:21:39.420Z,99704
2017-12-08T12:24:08.480Z,99696
2017-12-08T12:26:38.859Z,99693
2017-12-08T12:29:08.566Z,99698
2017-12-08T12:31:37.666Z,99700
2017-12-08T12:34:06.828Z,99698
2017-12-08T12:36:35.908Z,99696
2017-12-08T12:39:05.112Z,99701
2017-12-08T12:41:35.047Z,99700
2017-12-08T12:44:04.119Z,99706
2017-12-08T12:46:33.219Z,99706
2017-12-08T12:49:03.178Z,99711
2017-12-08T12:51:32.312Z,99715
2017-12-08T12:54:01.392Z,99719
2017-12-08T12:56:31.052Z,99717
2017-12-08T12:59:00.147Z,99716
2017-12-08T13:01:29.234Z,99714
2017-12-08T13:03:58.391Z,99709
2017-12-08T13:06:27.463Z,99712
2017-12-08T13:08:56.835Z,99720
2017-12-08T13:11:27.098Z,99706
2017-12-08T13:13:56.359Z,99708
2017-12-08T13:16:25.551Z,99713
2017-12-08T13:18:54.738Z,99708
2017-12-08T13:21:23.970Z,99709
2017-12-08T13:23:53.195Z,99715
2017-12-08T13:26:22.746Z,99714
2017-12-08T13:28:52.693Z,99715
2017-12-08T13:31:21.905Z,99711
2017-12-08T13:33:53.623Z,99715
2017-12-08T13:36:22.870Z,99711
2017-12-08T13:38:52.830Z,99705
2017-12-08T13:41:22.114Z,99705
2017-12-08T13:43:51.256Z,99701
2017-12-08T13:46:20.417Z,99696
2017-12-08T13:48:49.780Z,99695
2017-12-08T13:51:18.952Z,99695
2017-12-08T13:54:08.032Z,99689
2017-12-08T13:56:52.653Z,99694
2017-12-08T13:59:21.970Z,99697
2017-12-08T14:01:51.984Z,99683
2017-12-08T14:04:21.186Z,99685
2017-12-08T14:06:50.414Z,99689
2017-12-08T14:09:19.561Z,99696
2017-12-08T14:11:48.959Z,99691
2017-12-08T14:14:18.242Z,99688
2017-12-08T14:16:48.439Z,99692
2017-12-08T14:19:18.528Z,99697
2017-12-08T14:21:47.969Z,99695
2017-12-08T14:24:17.229Z,99699
2017-12-08T14:26:46.523Z,99704
2017-12-08T14:29:16.151Z,99704
2017-12-08T14:31:45.334Z,99703
2017-12-08T14:34:15.264Z,99701
2017-12-08T14:36:44.404Z,99709
2017-12-08T14:39:13.507Z,99703
2017-12-08T14:41:42.877Z,99703
2017-12-08T14:44:12.792Z,99706
2017-12-08T14:46:41.882Z,99718
2017-12-08T14:49:10.985Z,99727
2017-12-08T14:51:40.147Z,99733
2017-12-08T14:54:09.246Z,99720
2017-12-08T14:56:38.350Z,99709
2017-12-08T14:59:08.658Z,99706
2017-12-08T15:01:37.762Z,99705
2017-12-08T15:04:06.855Z,99706
2017-12-08T15:06:36.008Z,99714
2017-12-08T15:09:05.178Z,99715
2017-12-08T15:11:34.318Z,99714
2017-12-08T15:14:03.534Z,99710
2017-12-08T15:16:32.666Z,99714
2017-12-08T15:19:01.804Z,99719
2017-12-08T15:21:31.887Z,99727
2017-12-08T15:24:01.504Z,99729
2017-12-08T15:26:30.635Z,99734
2017-12-08T15:28:59.759Z,99744
2017-12-08T15:31:29.620Z,99747
2017-12-08T15:33:58.731Z,99740
2017-12-08T15:36:28.264Z,99750
2017-12-08T15:38:57.745Z,99745
2017-12-08T15:41:26.884Z,99758
2017-12-08T15:43:56.483Z,99740
2017-12-08T15:46:25.586Z,99742
2017-12-08T15:48:54.826Z,99744
2017-12-08T15:51:24.606Z,99752
2017-12-08T15:53:54.626Z,99746
2017-12-08T15:56:24.591Z,99742
2017-12-08T15:58:53.969Z,99758
2017-12-08T16:01:24.100Z,99757
2017-12-08T16:03:55.961Z,99746
2017-12-08T16:06:25.350Z,99748
2017-12-08T16:08:55.529Z,99741
2017-12-08T16:11:25.696Z,99743
2017-12-08T16:13:55.005Z,99748
2017-12-08T16:16:24.279Z,99732
2017-12-08T16:18:54.390Z,99747
2017-12-08T16:21:23.601Z,99751
2017-12-08T16:23:54.005Z,99753
2017-12-08T16:26:23.374Z,99742
2017-12-08T16:28:52.548Z,99732
2017-12-08T16:31:22.530Z,99743
2017-12-08T16:33:53.295Z,99752
2017-12-08T16:36:23.075Z,99750
2017-12-08T16:38:53.273Z,99755
2017-12-08T16:41:22.522Z,99758
2017-12-08T16:43:51.890Z,99758
2017-12-08T16:46:21.632Z,99771
2017-12-08T16:48:51.016Z,99770
2017-12-08T16:51:22.513Z,99777
2017-12-08T16:53:51.785Z,99779
2017-12-08T16:56:21.207Z,99782
2017-12-08T16:58:50.958Z,99778
2017-12-08T17:01:20.408Z,99791
2017-12-08T17:03:49.582Z,99785
2017-12-08T17:06:19.006Z,99780
2017-12-08T17:08:48.277Z,99772
2017-12-08T17:11:17.768Z,99773
2017-12-08T17:13:46.967Z,99775
2017-12-08T17:16:16.429Z,99772
2017-12-08T17:18:45.722Z,99768
2017-12-08T17:21:14.866Z,99773
2017-12-08T17:23:44.028Z,99776
2017-12-08T17:26:13.268Z,99789
2017-12-08T17:28:42.365Z,99795
2017-12-08T17:31:12.012Z,99804
2017-12-08T17:33:41.227Z,99806
2017-12-08T17:36:10.415Z,99803
2017-12-08T17:38:39.635Z,99813
2017-12-08T17:41:09.412Z,99811
2017-12-08T17:43:38.592Z,99817
2017-12-08T17:46:07.892Z,99817
2017-12-08T17:48:37.090Z,99818
2017-12-08T17:51:06.354Z,99811
2017-12-08T17:53:37.361Z,99808
2017-12-08T17:56:07.549Z,99811
2017-12-08T17:58:37.642Z,99812
2017-12-08T18:01:06.781Z,99811
2017-12-08T18:03:35.976Z,99817
2017-12-08T18:06:05.531Z,99822
2017-12-08T18:08:34.764Z,99828
2017-12-08T18:11:04.199Z,99826
2017-12-08T18:13:34.178Z,99835
2017-12-08T18:16:03.358Z,99848
2017-12-08T18:18:32.505Z,99848
2017-12-08T18:21:01.651Z,99853
2017-12-08T18:23:31.816Z,99853
2017-12-08T18:26:00.996Z,99847
2017-12-08T18:28:30.747Z,99852
2017-12-08T18:31:00.392Z,99851
2017-12-08T18:33:29.775Z,99857
2017-12-08T18:36:02.879Z,99860
2017-12-08T18:38:32.383Z,99868
2017-12-08T18:41:01.651Z,99868
2017-12-08T18:43:30.984Z,99868
2017-12-08T18:46:00.870Z,99868
2017-12-08T18:48:31.990Z,99867
2017-12-08T18:51:01.473Z,99867
2017-12-08T18:53:31.524Z,99867
2017-12-08T18:56:02.547Z,99880
2017-12-08T18:58:31.718Z,99873
2017-12-08T19:01:02.121Z,99878
2017-12-08T19:03:39.125Z,99877
2017-12-08T19:06:08.794Z,99873
2017-12-08T19:08:38.900Z,99867
2017-12-08T19:11:08.163Z,99862
2017-12-08T19:13:37.298Z,99869
2017-12-08T19:16:07.276Z,99875
2017-12-08T19:18:36.740Z,99876
2017-12-08T19:21:05.870Z,99885
2017-12-08T19:23:35.064Z,99892
2017-12-08T19:26:04.295Z,99889
2017-12-08T19:28:33.400Z,99885
2017-12-08T19:31:02.493Z,99886
2017-12-08T19:33:32.822Z,99894
2017-12-08T19:36:02.684Z,99894
2017-12-08T19:38:31.836Z,99890
2017-12-08T19:41:01.600Z,99899
2017-12-08T19:43:30.699Z,99908
2017-12-08T19:46:00.607Z,99902
2017-12-08T19:48:29.754Z,99902
2017-12-08T19:50:58.890Z,99912
2017-12-08T19:53:28.055Z,99906
2017-12-08T19:55:57.941Z,99897
2017-12-08T19:58:27.055Z,99895
2017-12-08T20:00:56.156Z,99896
2017-12-08T20:03:25.308Z,99898
2017-12-08T20:05:55.189Z,99899
2017-12-08T20:08:24.362Z,99899
2017-12-08T20:10:53.555Z,99898
2017-12-08T20:13:23.517Z,99891
2017-12-08T20:15:52.651Z,99875
2017-12-08T20:18:21.955Z,99881
2017-12-08T20:20:51.171Z,99887
2017-12-08T20:23:20.422Z,99887
2017-12-08T20:25:50.486Z,99895
2017-12-08T20:28:19.747Z,99899
2017-12-08T20:30:48.876Z,99899
2017-12-08T20:33:18.268Z,99895
2017-12-08T20:35:47.565Z,99898
2017-12-08T20:38:16.755Z,99882
2017-12-08T20:40:45.975Z,99874
2017-12-08T20:43:18.034Z,99875
2017-12-08T20:45:48.065Z,99872
2017-12-08T20:48:17.258Z,99866
2017-12-08T20:50:46.552Z,99871
2017-12-08T20:53:16.567Z,99867
2017-12-08T20:55:45.710Z,99873
2017-12-08T20:58:14.843Z,99871
2017-12-08T21:00:44.013Z,99863
2017-12-08T21:03:14.912Z,99867
2017-12-08T21:05:44.072Z,99864
2017-12-08T21:08:13.960Z,99872
2017-12-08T21:10:43.048Z,99871
2017-12-08T21:13:12.170Z,99868
2017-12-08T21:15:41.235Z,99874
2017-12-08T21:18:10.336Z,99879
2017-12-08T21:20:40.261Z,99874
2017-12-08T21:23:10.087Z,99873
2017-12-08T21:25:39.233Z,99875
2017-12-08T21:28:08.782Z,99872
2017-12-08T21:30:37.982Z,99874
2017-12-08T21:33:07.062Z,99864
2017-12-08T21:35:36.390Z,99869
2017-12-08T21:38:05.488Z,99872
2017-12-08T21:40:34.554Z,99870
2017-12-08T21:43:03.660Z,99868
2017-12-08T21:45:32.752Z,99863
2017-12-08T21:48:01.870Z,99867
2017-12-08T21:50:31.005Z,99871
2017-12-08T21:53:00.861Z,99879
2017-12-08T21:55:29.957Z,99885
2017-12-08T21:57:59.076Z,99888
2017-12-08T22:00:28.219Z,99879
2017-12-08T22:02:57.925Z,99868
2017-12-08T22:05:27.141Z,99881
2017-12-08T22:07:56.273Z,99881
2017-12-08T22:10:25.455Z,99883
2017-12-08T22:12:55.059Z,99891
2017-12-08T22:15:25.276Z,99876
2017-12-08T22:17:54.452Z,99876
2017-12-08T22:20:25.001Z,99879
2017-12-08T22:22:54.175Z,99877
2017-12-08T22:25:23.370Z,99875
2017-12-08T22:27:52.541Z,99874
2017-12-08T22:30:22.429Z,99866
2017-12-08T22:32:51.601Z,99866
2017-12-08T22:35:20.807Z,99865
2017-12-08T22:37:49.931Z,99863
2017-12-08T22:40:20.146Z,99858
2017-12-08T22:42:49.353Z,99861
2017-12-08T22:45:19.279Z,99866
2017-12-08T22:47:49.464Z,99857
2017-12-08T22:50:18.890Z,99858
2017-12-08T22:52:48.672Z,99859
2017-12-08T22:55:19.721Z,99860
2017-12-08T22:57:49.081Z,99860
2017-12-08T23:00:30.459Z,99864
2017-12-08T23:03:00.073Z,99862
2017-12-08T23:05:29.231Z,99864
2017-12-08T23:07:59.047Z,99875
2017-12-08T23:10:28.296Z,99879
2017-12-08T23:12:57.448Z,99869
2017-12-08T23:15:27.394Z,99862
2017-12-08T23:17:56.521Z,99863
2017-12-08T23:20:25.677Z,99860
2017-12-08T23:22:54.898Z,99855
2017-12-08T23:25:24.014Z,99856
2017-12-08T23:27:53.191Z,99867
2017-12-08T23:30:22.902Z,99869
2017-12-08T23:32:52.058Z,99877
2017-12-08T23:35:21.254Z,99878
2017-12-08T23:37:51.261Z,99880
2017-12-08T23:40:20.406Z,99871
2017-12-08T23:42:49.674Z,99851
2017-12-08T23:45:19.487Z,99843
2017-12-08T23:47:49.363Z,99850
2017-12-08T23:50:18.808Z,99837
2017-12-08T23:52:48.714Z,99833
2017-12-08T23:55:18.231Z,99843
2017-12-08T23:57:47.399Z,99832
